sensor_id;sensor_type;location;lat;lon;timestamp;pressure;altitude;pressure_sealevel;temperature;humidity
74441;BME280;62870;54.692;25.284;2024-01-15T00:02:48;980.6;;;26.3;19.6
74441;BME280;62870;54.692;25.284;2024-01-15T00:08:20;980.6;;;26.3;19.6
74441;BME280;62870;54.692;25.284;2024-01-15T00:22:54;980.5;;;26.4;19.1
74441;BME280;62870;54.692;25.284;2024-01-15T00:28:08;980.5;;;26.4;19.4
74441;BME280;62870;54.692;25.284;2024-01-15T00:32:44;980.5;;;26.3;19.6
74441;BME280;62870;54.692;25.284;2024-01-15T00:38:22;980.6;;;26.3;19.6
74441;BME280;62870;54.692;25.284;2024-01-15T00:42:48;980.6;;;26.3;19.5
74441;BME280;62870;54.692;25.284;2024-01-15T00:48:08;980.5;;;26.3;19.3
74441;BME280;62870;54.692;25.284;2024-01-15T00:52:48;980.5;;;26.4;19.2
74441;BME280;62870;54.692;25.284;2024-01-15T00:57:28;980.5;;;26.4;19.4
74441;BME280;62870;54.692;25.284;2024-01-15T01:02:54;980.5;;;26.3;19.7
74441;BME280;62870;54.692;25.284;2024-01-15T01:07:54;980.5;;;26.3;19.8
74441;BME280;62870;54.692;25.284;2024-01-15T01:12:36;980.5;;;26.3;19.6
74441;BME280;62870;54.692;25.284;2024-01-15T01:18:02;980.5;;;26.3;19.4
74441;BME280;62870;54.692;25.284;2024-01-15T01:22:40;980.5;;;26.3;19.3
74441;BME280;62870;54.692;25.284;2024-01-15T01:28:22;980.4;;;26.3;19.4
74441;BME280;62870;54.692;25.284;2024-01-15T01:33:00;980.4;;;26.3;19.6
74441;BME280;62870;54.692;25.284;2024-01-15T01:37:28;980.4;;;26.2;19.6
74441;BME280;62870;54.692;25.284;2024-01-15T01:43:20;980.4;;;26.2;19.6
74441;BME280;62870;54.692;25.284;2024-01-15T01:48:08;980.4;;;26.3;19.4
74441;BME280;62870;54.692;25.284;2024-01-15T01:53:20;980.3;;;26.3;19.3
74441;BME280;62870;54.692;25.284;2024-01-15T01:57:29;980.3;;;26.3;19.3
74441;BME280;62870;54.692;25.284;2024-01-15T02:02:40;980.3;;;26.2;19.6
74441;BME280;62870;54.692;25.284;2024-01-15T02:07:54;980.3;;;26.2;19.6
74441;BME280;62870;54.692;25.284;2024-01-15T02:13:20;980.2;;;26.2;19.6
74441;BME280;62870;54.692;25.284;2024-01-15T02:17:28;980.3;;;26.2;19.4
74441;BME280;62870;54.692;25.284;2024-01-15T02:23:07;980.3;;;26.3;19.3
74441;BME280;62870;54.692;25.284;2024-01-15T02:27:36;980.3;;;26.3;19.2
74441;BME280;62870;54.692;25.284;2024-01-15T02:33:09;980.3;;;26.2;19.6
74441;BME280;62870;54.692;25.284;2024-01-15T02:37:48;980.2;;;26.2;19.6
74441;BME280;62870;54.692;25.284;2024-01-15T02:42:44;980.2;;;26.2;19.6
74441;BME280;62870;54.692;25.284;2024-01-15T02:47:36;980;;;26.2;19.4
74441;BME280;62870;54.692;25.284;2024-01-15T02:52:41;980.1;;;26.2;19.2
74441;BME280;62870;54.692;25.284;2024-01-15T02:57:44;980.1;;;26.2;19.2
74441;BME280;62870;54.692;25.284;2024-01-15T03:03:22;980;;;26.2;19.3
74441;BME280;62870;54.692;25.284;2024-01-15T03:08:00;980;;;26.2;19.4
74441;BME280;62870;54.692;25.284;2024-01-15T03:13:03;980;;;26.2;19.5
74441;BME280;62870;54.692;25.284;2024-01-15T03:18:08;980;;;26.2;19.4
74441;BME280;62870;54.692;25.284;2024-01-15T03:22:48;979.9;;;26.2;19.3
74441;BME280;62870;54.692;25.284;2024-01-15T03:27:38;979.9;;;26.2;19.2
74441;BME280;62870;54.692;25.284;2024-01-15T03:32:54;979.9;;;26.2;19.2
74441;BME280;62870;54.692;25.284;2024-01-15T03:38:08;979.8;;;26.2;19.4
74441;BME280;62870;54.692;25.284;2024-01-15T03:42:54;979.8;;;26.1;19.4
74441;BME280;62870;54.692;25.284;2024-01-15T03:47:58;979.8;;;26.1;19.3
74441;BME280;62870;54.692;25.284;2024-01-15T03:52:46;979.8;;;26.2;19.2
74441;BME280;62870;54.692;25.284;2024-01-15T03:58:20;979.8;;;26.2;19.1
74441;BME280;62870;54.692;25.284;2024-01-15T04:02:46;979.7;;;26.2;19.2
74441;BME280;62870;54.692;25.284;2024-01-15T04:08:03;979.7;;;26.2;19.4
74441;BME280;62870;54.692;25.284;2024-01-15T04:13:23;979.7;;;26.1;19.5
74441;BME280;62870;54.692;25.284;2024-01-15T04:17:28;979.7;;;26.1;19.5
74441;BME280;62870;54.692;25.284;2024-01-15T04:23:03;979.7;;;26.1;19.2
74441;BME280;62870;54.692;25.284;2024-01-15T04:28:09;979.7;;;26.2;19.1
74441;BME280;62870;54.692;25.284;2024-01-15T04:32:46;979.6;;;26.2;19.2
74441;BME280;62870;54.692;25.284;2024-01-15T04:37:29;979.6;;;26.1;19.3
74441;BME280;62870;54.692;25.284;2024-01-15T04:43:20;979.5;;;26.1;19.4
74441;BME280;62870;54.692;25.284;2024-01-15T04:47:49;979.5;;;26.1;19.4
74441;BME280;62870;54.692;25.284;2024-01-15T04:53:22;979.5;;;26.1;19.2
74441;BME280;62870;54.692;25.284;2024-01-15T04:58:03;979.4;;;26.1;19.1
74441;BME280;62870;54.692;25.284;2024-01-15T05:03:20;979.4;;;26.2;19.1
74441;BME280;62870;54.692;25.284;2024-01-15T05:07:55;979.4;;;26.1;19.4
74441;BME280;62870;54.692;25.284;2024-01-15T05:13:08;979.4;;;26.1;19.5
74441;BME280;62870;54.692;25.284;2024-01-15T05:18:22;979.4;;;26.1;19.5
74441;BME280;62870;54.692;25.284;2024-01-15T05:23:09;979.3;;;26.1;19.4
74441;BME280;62870;54.692;25.284;2024-01-15T05:28:08;979.3;;;26.1;19.2
74441;BME280;62870;54.692;25.284;2024-01-15T05:33:20;979.3;;;26.1;19.2
74441;BME280;62870;54.692;25.284;2024-01-15T05:38:21;979.3;;;26.1;19.4
74441;BME280;62870;54.692;25.284;2024-01-15T05:43:03;979.3;;;26.1;19.5
74441;BME280;62870;54.692;25.284;2024-01-15T05:48:21;979.2;;;26;19.5
74441;BME280;62870;54.692;25.284;2024-01-15T05:52:40;979.3;;;26.1;19.3
74441;BME280;62870;54.692;25.284;2024-01-15T05:57:28;979.3;;;26.1;19.2
74441;BME280;62870;54.692;25.284;2024-01-15T06:02:29;979.3;;;26.1;19.2
74441;BME280;62870;54.692;25.284;2024-01-15T06:07:45;979.2;;;26.1;19.4
74441;BME280;62870;54.692;25.284;2024-01-15T06:12:37;979.2;;;26;19.6
74441;BME280;62870;54.692;25.284;2024-01-15T06:17:28;979.2;;;26;19.6
74441;BME280;62870;54.692;25.284;2024-01-15T06:22:41;979.2;;;26;19.5
74441;BME280;62870;54.692;25.284;2024-01-15T06:28:21;979.2;;;26.1;19.4
74441;BME280;62870;54.692;25.284;2024-01-15T06:33:04;979.2;;;26.1;19.3
74441;BME280;62870;54.692;25.284;2024-01-15T06:37:49;979.2;;;26.1;19.4
74441;BME280;62870;54.692;25.284;2024-01-15T06:43:23;979.2;;;26;19.6
74441;BME280;62870;54.692;25.284;2024-01-15T06:48:09;979.2;;;25.9;19.6
74441;BME280;62870;54.692;25.284;2024-01-15T06:53:07;979.1;;;25.9;19.5
74441;BME280;62870;54.692;25.284;2024-01-15T06:57:55;979.1;;;26;19.4
74441;BME280;62870;54.692;25.284;2024-01-15T07:03:07;979.1;;;25.9;19.3
74441;BME280;62870;54.692;25.284;2024-01-15T07:07:55;979.1;;;25.9;19.4
74441;BME280;62870;54.692;25.284;2024-01-15T07:13:05;979.1;;;25.9;19.6
74441;BME280;62870;54.692;25.284;2024-01-15T07:17:49;979.1;;;25.8;19.6
74441;BME280;62870;54.692;25.284;2024-01-15T07:23:21;979.1;;;25.8;19.7
74441;BME280;62870;54.692;25.284;2024-01-15T07:27:47;979.1;;;25.8;19.4
74441;BME280;62870;54.692;25.284;2024-01-15T07:33:23;979.1;;;25.8;19.4
74441;BME280;62870;54.692;25.284;2024-01-15T07:37:29;979.1;;;25.9;19.4
74441;BME280;62870;54.692;25.284;2024-01-15T07:43:09;979.1;;;25.8;19.5
74441;BME280;62870;54.692;25.284;2024-01-15T07:47:55;979;;;25.8;19.7
74441;BME280;62870;54.692;25.284;2024-01-15T07:52:29;979.1;;;25.7;19.7
74441;BME280;62870;54.692;25.284;2024-01-15T07:57:53;979;;;25.8;19.5
74441;BME280;62870;54.692;25.284;2024-01-15T08:03:23;978.9;;;25.8;19.4
74441;BME280;62870;54.692;25.284;2024-01-15T08:08:21;978.9;;;25.8;19.4
74441;BME280;62870;54.692;25.284;2024-01-15T08:12:49;978.8;;;25.8;19.6
74441;BME280;62870;54.692;25.284;2024-01-15T08:18:09;978.8;;;25.7;19.7
74441;BME280;62870;54.692;25.284;2024-01-15T08:22:30;978.8;;;25.7;19.7
74441;BME280;62870;54.692;25.284;2024-01-15T08:27:59;978.7;;;25.7;19.7
74441;BME280;62870;54.692;25.284;2024-01-15T08:32:46;978.7;;;25.7;19.5
74441;BME280;62870;54.692;25.284;2024-01-15T08:38:07;978.6;;;25.7;19.5
74441;BME280;62870;54.692;25.284;2024-01-15T08:42:53;978.5;;;25.7;19.6
74441;BME280;62870;54.692;25.284;2024-01-15T08:48:09;978.5;;;25.6;19.7
74441;BME280;62870;54.692;25.284;2024-01-15T08:53:04;978.5;;;25.6;19.8
74441;BME280;62870;54.692;25.284;2024-01-15T08:58:23;978.4;;;25.6;19.8
74441;BME280;62870;54.692;25.284;2024-01-15T09:02:29;978.4;;;25.6;19.6
74441;BME280;62870;54.692;25.284;2024-01-15T09:08:01;978.4;;;25.6;19.5
74441;BME280;62870;54.692;25.284;2024-01-15T09:13:21;978.3;;;25.6;19.6
74441;BME280;62870;54.692;25.284;2024-01-15T09:17:29;978.2;;;25.6;19.8
74441;BME280;62870;54.692;25.284;2024-01-15T09:23:01;978.1;;;25.5;19.8
74441;BME280;62870;54.692;25.284;2024-01-15T09:27:41;978.1;;;25.5;19.9
74441;BME280;62870;54.692;25.284;2024-01-15T09:32:37;978.1;;;25.5;19.7
74441;BME280;62870;54.692;25.284;2024-01-15T09:37:39;978.1;;;25.6;19.6
74441;BME280;62870;54.692;25.284;2024-01-15T09:43:23;978.1;;;25.6;19.6
74441;BME280;62870;54.692;25.284;2024-01-15T09:47:49;978;;;25.5;19.8
74441;BME280;62870;54.692;25.284;2024-01-15T09:53:23;978;;;25.4;19.9
74441;BME280;62870;54.692;25.284;2024-01-15T09:58:01;977.9;;;25.4;19.9
74441;BME280;62870;54.692;25.284;2024-01-15T10:03:09;977.9;;;25.5;19.7
74441;BME280;62870;54.692;25.284;2024-01-15T10:07:55;977.9;;;25.5;19.5
74441;BME280;62870;54.692;25.284;2024-01-15T10:13:07;977.9;;;25.5;19.5
74441;BME280;62870;54.692;25.284;2024-01-15T10:18:23;977.9;;;25.5;19.7
74441;BME280;62870;54.692;25.284;2024-01-15T10:23:21;977.8;;;25.4;19.7
74441;BME280;62870;54.692;25.284;2024-01-15T10:28:09;977.8;;;25.4;19.8
74441;BME280;62870;54.692;25.284;2024-01-15T10:33:21;977.8;;;25.4;19.8
74441;BME280;62870;54.692;25.284;2024-01-15T10:38:21;977.8;;;25.5;19.6
74441;BME280;62870;54.692;25.284;2024-01-15T10:43:03;977.7;;;25.5;19.5
74441;BME280;62870;54.692;25.284;2024-01-15T10:48:23;977.7;;;25.5;19.6
74441;BME280;62870;54.692;25.284;2024-01-15T10:52:29;977.7;;;25.5;19.7
74441;BME280;62870;54.692;25.284;2024-01-15T10:57:55;977.6;;;25.4;19.8
74441;BME280;62870;54.692;25.284;2024-01-15T11:02:41;977.6;;;25.4;19.7
74441;BME280;62870;54.692;25.284;2024-01-15T11:07:29;977.5;;;25.4;19.6
74441;BME280;62870;54.692;25.284;2024-01-15T11:12:37;977.4;;;25.5;19.5
74441;BME280;62870;54.692;25.284;2024-01-15T11:17:59;977.3;;;25.4;19.6
74441;BME280;62870;54.692;25.284;2024-01-15T11:22:47;977.4;;;25.4;19.7
74441;BME280;62870;54.692;25.284;2024-01-15T11:28:46;977.4;;;25.3;19.8
74441;BME280;62870;54.692;25.284;2024-01-15T11:33:03;977.3;;;25.3;19.8
74441;BME280;62870;54.692;25.284;2024-01-15T11:37:57;977.2;;;25.4;19.6
74441;BME280;62870;54.692;25.284;2024-01-15T11:43:21;977.3;;;25.4;19.5
74441;BME280;62870;54.692;25.284;2024-01-15T11:48:10;977.2;;;25.4;19.5
74441;BME280;62870;54.692;25.284;2024-01-15T11:53:08;977.2;;;25.4;19.7
74441;BME280;62870;54.692;25.284;2024-01-15T11:57:53;977.2;;;25.3;19.7
74441;BME280;62870;54.692;25.284;2024-01-15T12:03:07;977.1;;;25.3;19.6
74441;BME280;62870;54.692;25.284;2024-01-15T12:08:20;977;;;25.3;19.5
74441;BME280;62870;54.692;25.284;2024-01-15T12:13:21;977;;;25.3;19.5
74441;BME280;62870;54.692;25.284;2024-01-15T12:17:47;976.8;;;25.3;19.5
74441;BME280;62870;54.692;25.284;2024-01-15T12:23:07;976.8;;;25.3;19.7
74441;BME280;62870;54.692;25.284;2024-01-15T12:27:47;976.7;;;25.3;19.7
74441;BME280;62870;54.692;25.284;2024-01-15T12:33:19;976.8;;;25.3;19.7
74441;BME280;62870;54.692;25.284;2024-01-15T12:37:29;976.8;;;25.3;19.5
74441;BME280;62870;54.692;25.284;2024-01-15T12:42:29;976.7;;;25.3;19.5
74441;BME280;62870;54.692;25.284;2024-01-15T12:47:37;976.6;;;25.3;19.5
74441;BME280;62870;54.692;25.284;2024-01-15T12:53:07;976.6;;;25.2;19.6
74441;BME280;62870;54.692;25.284;2024-01-15T12:57:37;976.6;;;25.2;19.8
74441;BME280;62870;54.692;25.284;2024-01-15T13:02:31;976.6;;;25.2;19.6
74441;BME280;62870;54.692;25.284;2024-01-15T13:08:21;976.6;;;25.1;19.5
74441;BME280;62870;54.692;25.284;2024-01-15T13:12:29;976.6;;;25.1;19.4
74441;BME280;62870;54.692;25.284;2024-01-15T13:18:07;976.5;;;25.1;19.4
74441;BME280;62870;54.692;25.284;2024-01-15T13:22:29;976.6;;;25;19.5
74441;BME280;62870;54.692;25.284;2024-01-15T13:28:07;976.6;;;25;19.5
74441;BME280;62870;54.692;25.284;2024-01-15T13:32:53;976.6;;;24.9;19.6
74441;BME280;62870;54.692;25.284;2024-01-15T13:38:05;976.6;;;25;19.5
74441;BME280;62870;54.692;25.284;2024-01-15T13:42:51;976.6;;;25;19.5
74441;BME280;62870;54.692;25.284;2024-01-15T13:48:07;976.5;;;25;19.4
74441;BME280;62870;54.692;25.284;2024-01-15T13:52:29;976.4;;;25;19.5
74441;BME280;62870;54.692;25.284;2024-01-15T13:58:21;976.4;;;24.9;19.6
74441;BME280;62870;54.692;25.284;2024-01-15T14:02:47;976.4;;;24.9;19.7
74441;BME280;62870;54.692;25.284;2024-01-15T14:08:03;976.4;;;24.9;19.6
74441;BME280;62870;54.692;25.284;2024-01-15T14:13:01;976.5;;;25;19.5
74441;BME280;62870;54.692;25.284;2024-01-15T14:17:49;976.5;;;25;19.3
74441;BME280;62870;54.692;25.284;2024-01-15T14:22:37;976.5;;;25;19.4
74441;BME280;62870;54.692;25.284;2024-01-15T14:27:29;976.5;;;25;19.5
74441;BME280;62870;54.692;25.284;2024-01-15T14:32:41;976.5;;;24.9;19.6
74441;BME280;62870;54.692;25.284;2024-01-15T14:38:21;976.5;;;24.9;19.6
74441;BME280;62870;54.692;25.284;2024-01-15T14:43:05;976.5;;;24.9;19.4
74441;BME280;62870;54.692;25.284;2024-01-15T14:47:53;976.5;;;25;19.4
74441;BME280;62870;54.692;25.284;2024-01-15T14:53:07;976.5;;;25;19.4
74441;BME280;62870;54.692;25.284;2024-01-15T14:57:53;976.5;;;25;19.4
74441;BME280;62870;54.692;25.284;2024-01-15T15:03:07;976.5;;;24.9;19.5
74441;BME280;62870;54.692;25.284;2024-01-15T15:07:47;976.5;;;24.9;19.5
74441;BME280;62870;54.692;25.284;2024-01-15T15:13:21;976.5;;;24.9;19.4
74441;BME280;62870;54.692;25.284;2024-01-15T15:17:29;976.4;;;25;19.4
74441;BME280;62870;54.692;25.284;2024-01-15T15:23:01;976.5;;;25;19.4
74441;BME280;62870;54.692;25.284;2024-01-15T15:28:21;976.4;;;24.9;19.4
74441;BME280;62870;54.692;25.284;2024-01-15T15:32:49;976.4;;;24.8;19.6
74441;BME280;62870;54.692;25.284;2024-01-15T15:37:37;976.5;;;24.9;19.6
74441;BME280;62870;54.692;25.284;2024-01-15T15:42:37;976.6;;;24.9;19.5
74441;BME280;62870;54.692;25.284;2024-01-15T15:47:53;976.7;;;25;19.5
74441;BME280;62870;54.692;25.284;2024-01-15T15:52:37;976.7;;;25;19.5
74441;BME280;62870;54.692;25.284;2024-01-15T15:58:21;976.6;;;25;19.8
74441;BME280;62870;54.692;25.284;2024-01-15T16:02:41;976.6;;;25;19.8
74441;BME280;62870;54.692;25.284;2024-01-15T16:08:05;976.6;;;25;19.9
74441;BME280;62870;54.692;25.284;2024-01-15T16:13:03;976.7;;;25.1;19.7
74441;BME280;62870;54.692;25.284;2024-01-15T16:18:21;976.7;;;25.1;19.6
74441;BME280;62870;54.692;25.284;2024-01-15T16:22:53;976.8;;;25.2;19.6
74441;BME280;62870;54.692;25.284;2024-01-15T16:28:07;976.8;;;25.2;19.7
74441;BME280;62870;54.692;25.284;2024-01-15T16:33:19;976.8;;;25.2;19.8
74441;BME280;62870;54.692;25.284;2024-01-15T16:38:21;976.8;;;25.2;19.9
74441;BME280;62870;54.692;25.284;2024-01-15T16:43:07;976.9;;;25.2;19.7
74441;BME280;62870;54.692;25.284;2024-01-15T16:48:21;976.9;;;25.3;19.7
74441;BME280;62870;54.692;25.284;2024-01-15T16:53:21;976.9;;;25.3;19.6
74441;BME280;62870;54.692;25.284;2024-01-15T16:58:01;976.9;;;25.3;19.7
74441;BME280;62870;54.692;25.284;2024-01-15T17:03:21;976.8;;;25.2;19.9
74441;BME280;62870;54.692;25.284;2024-01-15T17:08:01;976.8;;;25.2;19.8
74441;BME280;62870;54.692;25.284;2024-01-15T17:12:45;976.8;;;25.2;19.7
74441;BME280;62870;54.692;25.284;2024-01-15T17:17:37;976.9;;;25.2;19.6
74441;BME280;62870;54.692;25.284;2024-01-15T17:22:45;976.9;;;25.2;19.6
74441;BME280;62870;54.692;25.284;2024-01-15T17:27:47;976.8;;;25.2;19.6
74441;BME280;62870;54.692;25.284;2024-01-15T17:32:49;976.8;;;25.1;19.7
74441;BME280;62870;54.692;25.284;2024-01-15T17:37:49;976.8;;;25.1;19.7
74441;BME280;62870;54.692;25.284;2024-01-15T17:43:21;976.8;;;25.1;19.5
74441;BME280;62870;54.692;25.284;2024-01-15T17:47:31;976.8;;;25.2;19.5
74441;BME280;62870;54.692;25.284;2024-01-15T17:52:49;976.9;;;25.2;19.4
74441;BME280;62870;54.692;25.284;2024-01-15T17:58:21;976.9;;;25.2;19.3
74441;BME280;62870;54.692;25.284;2024-01-15T18:03:07;977;;;25.1;19.2
74441;BME280;62870;54.692;25.284;2024-01-15T18:08:07;977;;;25;19.2
74441;BME280;62870;54.692;25.284;2024-01-15T18:12:45;977;;;25;19.3
74441;BME280;62870;54.692;25.284;2024-01-15T18:18:07;977;;;25.1;19.3
74441;BME280;62870;54.692;25.284;2024-01-15T18:22:37;977;;;25.1;19.3
74441;BME280;62870;54.692;25.284;2024-01-15T18:28:21;977.1;;;25.1;19.3
74441;BME280;62870;54.692;25.284;2024-01-15T18:32:49;977.1;;;25.1;19.3
74441;BME280;62870;54.692;25.284;2024-01-15T18:38:07;977;;;25;19.3
74441;BME280;62870;54.692;25.284;2024-01-15T18:42:47;977;;;25;19.4
74441;BME280;62870;54.692;25.284;2024-01-15T18:48:21;977;;;25;19.3
74441;BME280;62870;54.692;25.284;2024-01-15T18:52:29;977;;;25;19.2
74441;BME280;62870;54.692;25.284;2024-01-15T18:57:29;976.9;;;25;19.1
74441;BME280;62870;54.692;25.284;2024-01-15T19:02:49;976.9;;;25;19.1
74441;BME280;62870;54.692;25.284;2024-01-15T19:07:49;976.9;;;24.9;19
74441;BME280;62870;54.692;25.284;2024-01-15T19:12:49;976.8;;;24.8;19
74441;BME280;62870;54.692;25.284;2024-01-15T19:18:17;976.8;;;24.8;19
74441;BME280;62870;54.692;25.284;2024-01-15T19:23:15;976.8;;;24.8;19
74441;BME280;62870;54.692;25.284;2024-01-15T19:27:49;976.8;;;24.8;19
74441;BME280;62870;54.692;25.284;2024-01-15T19:33:05;976.7;;;24.8;19.1
74441;BME280;62870;54.692;25.284;2024-01-15T19:38:05;976.7;;;24.7;19.3
74441;BME280;62870;54.692;25.284;2024-01-15T19:43:03;976.8;;;24.7;19.3
74441;BME280;62870;54.692;25.284;2024-01-15T19:47:29;976.8;;;24.7;19.2
74441;BME280;62870;54.692;25.284;2024-01-15T19:53:03;976.8;;;24.7;19.1
74441;BME280;62870;54.692;25.284;2024-01-15T19:57:38;976.7;;;24.7;19.1
74441;BME280;62870;54.692;25.284;2024-01-15T20:03:17;976.7;;;24.7;19.1
74441;BME280;62870;54.692;25.284;2024-01-15T20:07:29;976.7;;;24.7;19.2
74441;BME280;62870;54.692;25.284;2024-01-15T20:13:05;976.7;;;24.7;19.3
74441;BME280;62870;54.692;25.284;2024-01-15T20:17:29;976.6;;;24.7;19.3
74441;BME280;62870;54.692;25.284;2024-01-15T20:23:17;976.6;;;24.7;19.2
74441;BME280;62870;54.692;25.284;2024-01-15T20:27:47;976.6;;;24.8;19.1
74441;BME280;62870;54.692;25.284;2024-01-15T20:32:37;976.5;;;24.8;19.1
74441;BME280;62870;54.692;25.284;2024-01-15T20:37:29;976.5;;;24.8;19.1
74441;BME280;62870;54.692;25.284;2024-01-15T20:42:37;976.5;;;24.8;19.2
74441;BME280;62870;54.692;25.284;2024-01-15T20:47:29;976.4;;;24.7;19.1
74441;BME280;62870;54.692;25.284;2024-01-15T20:53:17;976.4;;;24.7;19.1
74441;BME280;62870;54.692;25.284;2024-01-15T20:58:20;976.4;;;24.7;19
74441;BME280;62870;54.692;25.284;2024-01-15T21:02:49;976.4;;;24.8;19
74441;BME280;62870;54.692;25.284;2024-01-15T21:08:05;976.4;;;24.8;19
74441;BME280;62870;54.692;25.284;2024-01-15T21:13:05;976.4;;;24.7;19
74441;BME280;62870;54.692;25.284;2024-01-15T21:18:03;976.4;;;24.6;19.1
74441;BME280;62870;54.692;25.284;2024-01-15T21:23:05;976.4;;;24.6;19
74441;BME280;62870;54.692;25.284;2024-01-15T21:28:05;976.4;;;24.6;19
74441;BME280;62870;54.692;25.284;2024-01-15T21:32:51;976.4;;;24.6;19
74441;BME280;62870;54.692;25.284;2024-01-15T21:38:05;976.4;;;24.6;19
74441;BME280;62870;54.692;25.284;2024-01-15T21:42:37;976.3;;;24.6;19.1
74441;BME280;62870;54.692;25.284;2024-01-15T21:48:19;976.3;;;24.5;19.2
74441;BME280;62870;54.692;25.284;2024-01-15T21:53:01;976.3;;;24.5;19.1
74441;BME280;62870;54.692;25.284;2024-01-15T21:58:01;976.3;;;24.5;19
74441;BME280;62870;54.692;25.284;2024-01-15T22:03:17;976.4;;;24.5;19
74441;BME280;62870;54.692;25.284;2024-01-15T22:07:49;976.3;;;24.5;18.9
74441;BME280;62870;54.692;25.284;2024-01-15T22:12:37;976.3;;;24.5;18.9
74441;BME280;62870;54.692;25.284;2024-01-15T22:17:29;976.3;;;24.5;19
74441;BME280;62870;54.692;25.284;2024-01-15T22:23:03;976.2;;;24.5;19
74441;BME280;62870;54.692;25.284;2024-01-15T22:27:47;976.3;;;24.5;18.9
74441;BME280;62870;54.692;25.284;2024-01-15T22:33:15;976.2;;;24.5;18.8
74441;BME280;62870;54.692;25.284;2024-01-15T22:37:29;976.3;;;24.5;18.8
74441;BME280;62870;54.692;25.284;2024-01-15T22:43:17;976.2;;;24.5;18.8
74441;BME280;62870;54.692;25.284;2024-01-15T22:47:59;976.3;;;24.4;18.8
74441;BME280;62870;54.692;25.284;2024-01-15T22:53:19;976.3;;;24.4;18.7
74441;BME280;62870;54.692;25.284;2024-01-15T22:57:29;976.3;;;24.4;18.9
74441;BME280;62870;54.692;25.284;2024-01-15T23:03:05;976.2;;;24.5;18.8
74441;BME280;62870;54.692;25.284;2024-01-15T23:08:17;976.2;;;24.5;18.8
74441;BME280;62870;54.692;25.284;2024-01-15T23:13:17;976.2;;;24.5;18.8
74441;BME280;62870;54.692;25.284;2024-01-15T23:18:03;976.1;;;24.4;18.8
74441;BME280;62870;54.692;25.284;2024-01-15T23:23:17;976.1;;;24.4;18.9
74441;BME280;62870;54.692;25.284;2024-01-15T23:28:17;976.1;;;24.4;18.9
74441;BME280;62870;54.692;25.284;2024-01-15T23:33:01;976;;;24.4;18.8
74441;BME280;62870;54.692;25.284;2024-01-15T23:38:17;976;;;24.5;18.8
74441;BME280;62870;54.692;25.284;2024-01-15T23:42:37;976;;;24.5;18.8
74441;BME280;62870;54.692;25.284;2024-01-15T23:47:29;976;;;24.5;18.9
74441;BME280;62870;54.692;25.284;2024-01-15T23:52:57;976;;;24.4;19
74441;BME280;62870;54.692;25.284;2024-01-15T23:57:29;976;;;24.5;18.9
